createdAt,value
2023-01-03T00:04:49.830Z,100740.56
2023-01-03T00:09:51.491Z,100758.59
2023-01-03T00:14:52.939Z,100767.09
2023-01-03T00:19:54.824Z,100769.22
2023-01-03T00:24:56.270Z,100777.22
2023-01-03T00:29:57.708Z,100786.09
2023-01-03T00:35:04.759Z,100781.66
2023-01-03T00:40:07.288Z,100795.50
2023-01-03T00:45:10.676Z,100795.38
2023-01-03T00:50:12.249Z,100791.41
2023-01-03T00:55:13.757Z,100798.53
2023-01-03T01:00:15.518Z,100810.44
2023-01-03T01:05:17.049Z,100824.72
2023-01-03T01:10:20.168Z,100829.16
2023-01-03T01:15:21.932Z,100842.88
2023-01-03T01:20:23.362Z,100856.09
2023-01-03T01:25:24.843Z,100863.75
2023-01-03T01:30:26.253Z,100875.97
2023-01-03T01:35:27.715Z,100869.25
2023-01-03T01:40:31.584Z,100862.09
2023-01-03T01:45:35.247Z,100862.06
2023-01-03T01:50:54.354Z,100861.22
2023-01-03T01:56:22.060Z,100861.19
2023-01-03T02:01:24.964Z,100874.69
2023-01-03T02:06:27.836Z,100880.16
2023-01-03T02:11:48.153Z,100894.03
2023-01-03T02:17:10.471Z,100897.84
2023-01-03T02:22:49.230Z,100905.91
2023-01-03T02:28:08.141Z,100914.38
2023-01-03T02:33:27.917Z,100925.16
2023-01-03T02:38:50.084Z,100924.16
2023-01-03T02:44:17.930Z,100933.31
2023-01-03T02:49:28.080Z,100930.94
2023-01-03T02:54:40.532Z,100941.13
2023-01-03T02:59:53.259Z,100934.63
2023-01-03T03:04:57.587Z,100938.28
2023-01-03T03:10:17.672Z,100956.91
2023-01-03T03:15:23.698Z,100959.91
2023-01-03T03:20:43.480Z,100948.09
2023-01-03T03:25:52.524Z,100964.91
2023-01-03T03:30:58.844Z,100964.38
2023-01-03T03:36:08.544Z,100972.69
2023-01-03T03:41:57.081Z,100974.38
2023-01-03T03:47:08.873Z,100988.22
2023-01-03T03:52:15.930Z,100989.22
2023-01-03T03:57:24.500Z,100990.59
2023-01-03T04:02:29.547Z,100997.31
2023-01-03T04:07:31.063Z,101000.91
2023-01-03T04:12:32.503Z,101008.25
2023-01-03T04:17:34.091Z,101013.19
2023-01-03T04:22:35.589Z,101026.72
2023-01-03T04:27:37.064Z,101015.19
2023-01-03T04:32:38.979Z,101031.59
2023-01-03T04:37:40.395Z,101043.75
2023-01-03T04:43:00.503Z,101050.06
2023-01-03T04:48:02.187Z,101058.25
2023-01-03T04:53:03.645Z,101070.88
2023-01-03T04:58:05.077Z,101061.91
2023-01-03T05:03:06.535Z,101065.00
2023-01-03T05:08:11.571Z,101071.75
2023-01-03T05:13:12.991Z,101077.69
2023-01-03T05:18:14.546Z,101079.31
2023-01-03T05:23:36.786Z,101068.28
2023-01-03T05:28:39.016Z,101080.66
2023-01-03T05:33:41.160Z,101080.81
2023-01-03T05:38:42.613Z,101091.84
2023-01-03T05:43:44.498Z,101095.03
2023-01-03T05:48:45.919Z,101101.84
2023-01-03T05:53:47.464Z,101106.69
2023-01-03T05:58:49.225Z,101121.34
2023-01-03T06:03:50.691Z,101124.41
2023-01-03T06:08:52.539Z,101135.75
2023-01-03T06:13:54.040Z,101135.88
2023-01-03T06:18:55.572Z,101143.78
2023-01-03T06:23:57.059Z,101150.75
2023-01-03T06:28:58.783Z,101154.69
2023-01-03T06:34:00.241Z,101159.28
2023-01-03T06:39:02.114Z,101170.44
2023-01-03T06:44:03.713Z,101175.75
2023-01-03T06:49:23.602Z,101185.13
2023-01-03T06:54:27.039Z,101190.31
2023-01-03T06:59:28.769Z,101193.41
2023-01-03T07:04:30.286Z,101202.28
2023-01-03T07:09:31.748Z,101218.09
2023-01-03T07:14:33.165Z,101205.00
2023-01-03T07:19:34.696Z,101230.13
2023-01-03T07:24:36.108Z,101223.56
2023-01-03T07:29:37.535Z,101226.22
2023-01-03T07:34:38.958Z,101234.06
2023-01-03T07:39:40.405Z,101231.78
2023-01-03T07:44:41.821Z,101248.53
2023-01-03T07:49:43.251Z,101251.47
2023-01-03T07:54:44.704Z,101249.16
2023-01-03T07:59:46.177Z,101255.91
2023-01-03T08:04:47.632Z,101257.22
2023-01-03T08:10:07.997Z,101269.41
2023-01-03T08:15:09.701Z,101262.88
2023-01-03T08:20:11.238Z,101270.38
2023-01-03T08:25:12.654Z,101272.00
2023-01-03T08:30:14.125Z,101274.38
2023-01-03T08:35:16.895Z,101281.97
2023-01-03T08:40:18.983Z,101287.28
2023-01-03T08:45:20.620Z,101291.13
2023-01-03T08:50:22.103Z,101295.78
2023-01-03T08:55:23.596Z,101297.56
2023-01-03T09:00:25.229Z,101313.47
2023-01-03T09:05:28.182Z,101306.38
2023-01-03T09:10:29.627Z,101320.75
2023-01-03T09:15:31.100Z,101322.09
2023-01-03T09:20:32.522Z,101325.34
2023-01-03T09:25:37.360Z,101335.72
2023-01-03T09:30:39.494Z,101336.28
2023-01-03T09:35:41.003Z,101345.31
2023-01-03T09:40:45.219Z,101334.66
2023-01-03T09:45:52.160Z,101343.88
2023-01-03T09:56:33.241Z,101352.84
2023-01-03T10:02:02.977Z,101343.19
2023-01-03T10:07:16.441Z,101351.91
2023-01-03T10:12:47.146Z,101341.97
2023-01-03T10:18:24.970Z,101350.00
2023-01-03T10:23:26.530Z,101349.25
2023-01-03T10:28:41.150Z,101345.75
2023-01-03T10:33:47.998Z,101345.34
2023-01-03T10:39:03.382Z,101350.72
2023-01-03T10:44:05.258Z,101334.91
2023-01-03T10:49:33.497Z,101340.28
2023-01-03T10:54:41.006Z,101336.13
2023-01-03T10:59:48.974Z,101334.06
2023-01-03T11:05:12.333Z,101343.59
2023-01-03T11:10:18.636Z,101326.91
2023-01-03T11:15:38.727Z,101321.09
2023-01-03T11:20:49.827Z,101314.84
2023-01-03T11:26:06.803Z,101322.19
2023-01-03T11:31:33.715Z,101321.84
2023-01-03T11:36:48.734Z,101319.44
2023-01-03T11:42:12.092Z,101323.13
2023-01-03T11:47:34.986Z,101328.97
2023-01-03T11:52:43.705Z,101331.94
2023-01-03T11:58:02.266Z,101318.41
2023-01-03T12:03:28.449Z,101319.53
2023-01-03T12:08:43.016Z,101305.00
2023-01-03T12:13:51.345Z,101308.94
2023-01-03T12:19:11.923Z,101310.75
2023-01-03T12:24:49.997Z,101311.84
2023-01-03T12:29:57.399Z,101319.16
2023-01-03T12:35:14.844Z,101315.78
2023-01-03T12:40:26.231Z,101310.69
2023-01-03T12:45:56.268Z,101314.09
2023-01-03T12:50:57.830Z,101304.84
2023-01-03T12:56:29.014Z,101301.22
2023-01-03T13:01:40.916Z,101300.38
2023-01-03T13:06:49.785Z,101289.19
2023-01-03T13:11:54.433Z,101290.53
2023-01-03T13:17:06.956Z,101310.38
2023-01-03T13:22:45.489Z,101310.16
2023-01-03T13:27:51.564Z,101310.63
2023-01-03T13:33:00.220Z,101300.78
2023-01-03T13:38:26.700Z,101297.50
2023-01-03T13:43:37.734Z,101297.41
2023-01-03T13:48:51.667Z,101301.41
2023-01-03T13:54:21.972Z,101307.41
2023-01-03T13:59:30.995Z,101311.50
2023-01-03T14:04:56.866Z,101321.13
2023-01-03T14:10:05.553Z,101324.13
2023-01-03T14:15:25.845Z,101330.44
2023-01-03T14:20:35.368Z,101335.66
2023-01-03T14:25:42.464Z,101330.03
2023-01-03T14:30:44.941Z,101339.72
2023-01-03T14:35:46.497Z,101345.63
2023-01-03T14:40:48.441Z,101353.97
2023-01-03T14:45:54.701Z,101353.19
2023-01-03T14:50:56.316Z,101353.63
2023-01-03T14:55:58.637Z,101353.09
2023-01-03T15:01:03.755Z,101357.41
2023-01-03T15:06:21.493Z,101362.13
2023-01-03T15:11:56.664Z,101373.66
2023-01-03T15:17:14.791Z,101380.78
2023-01-03T15:22:21.544Z,101386.34
2023-01-03T15:27:41.212Z,101371.78
2023-01-03T15:32:53.700Z,101373.22
2023-01-03T15:37:56.114Z,101381.94
2023-01-03T15:43:21.438Z,101394.00
2023-01-03T15:48:22.958Z,101405.03
2023-01-03T15:53:31.397Z,101404.34
2023-01-03T15:58:35.476Z,101405.69
2023-01-03T16:03:37.112Z,101407.94
2023-01-03T16:08:40.337Z,101420.94
2023-01-03T16:13:50.431Z,101415.69
2023-01-03T16:18:52.685Z,101431.06
2023-01-03T16:23:54.330Z,101431.31
2023-01-03T16:28:56.470Z,101443.09
2023-01-03T16:33:58.154Z,101440.06
2023-01-03T16:39:00.322Z,101437.84
2023-01-03T16:44:01.820Z,101435.28
2023-01-03T16:49:03.434Z,101428.78
2023-01-03T16:54:07.461Z,101427.81
2023-01-03T16:59:15.074Z,101440.63
2023-01-03T17:04:17.118Z,101433.03
2023-01-03T17:09:22.721Z,101445.09
2023-01-03T17:14:24.378Z,101435.78
2023-01-03T17:24:48.676Z,101438.19
2023-01-03T17:29:53.110Z,101445.97
2023-01-03T17:34:54.577Z,101448.06
2023-01-03T17:39:59.793Z,101451.03
2023-01-03T17:45:19.803Z,101455.13
2023-01-03T17:50:21.234Z,101463.53
2023-01-03T17:55:26.473Z,101466.63
2023-01-03T18:00:29.223Z,101475.03
2023-01-03T18:05:30.993Z,101489.72
2023-01-03T18:10:43.856Z,101484.66
2023-01-03T18:15:47.509Z,101478.41
2023-01-03T18:20:49.421Z,101491.84
2023-01-03T18:25:51.667Z,101478.16
2023-01-03T18:30:54.829Z,101480.31
2023-01-03T18:35:56.424Z,101489.41
2023-01-03T18:41:04.408Z,101488.50
2023-01-03T18:46:14.493Z,101498.81
2023-01-03T18:51:18.602Z,101496.16
2023-01-03T18:56:28.703Z,101491.56
2023-01-03T19:01:30.795Z,101499.94
2023-01-03T19:06:33.792Z,101487.59
2023-01-03T19:11:37.605Z,101497.31
2023-01-03T19:16:39.243Z,101489.22
2023-01-03T19:21:44.418Z,101496.56
2023-01-03T19:26:50.590Z,101499.75
2023-01-03T19:31:55.163Z,101499.19
2023-01-03T19:36:57.930Z,101504.31
2023-01-03T19:42:18.750Z,101496.50
2023-01-03T19:47:20.771Z,101500.81
2023-01-03T19:52:22.282Z,101509.91
2023-01-03T19:57:33.966Z,101508.03
2023-01-03T20:02:39.837Z,101509.91
2023-01-03T20:07:41.685Z,101514.22
2023-01-03T20:12:43.540Z,101513.16
2023-01-03T20:17:45.032Z,101517.66
2023-01-03T20:23:05.853Z,101506.16
2023-01-03T20:28:16.968Z,101505.44
2023-01-03T20:33:18.775Z,101502.91
2023-01-03T20:38:27.364Z,101499.56
2023-01-03T20:43:28.992Z,101498.72
2023-01-03T20:48:30.508Z,101503.50
2023-01-03T20:53:31.951Z,101497.38
2023-01-03T20:58:33.358Z,101491.28
2023-01-03T21:03:36.485Z,101491.72
2023-01-03T21:08:56.325Z,101496.47
2023-01-03T21:13:59.975Z,101502.69
2023-01-03T21:19:22.889Z,101498.22
2023-01-03T21:24:25.226Z,101492.09
2023-01-03T21:29:27.775Z,101489.41
2023-01-03T21:34:30.601Z,101487.78
2023-01-03T21:39:32.020Z,101493.38
2023-01-03T21:44:33.439Z,101483.88
2023-01-03T21:49:34.850Z,101488.06
2023-01-03T21:54:36.270Z,101495.59
2023-01-03T21:59:37.917Z,101499.28
2023-01-03T22:04:39.334Z,101502.19
2023-01-03T22:09:59.366Z,101496.97
2023-01-03T22:15:00.857Z,101500.06
2023-01-03T22:20:03.267Z,101497.72
2023-01-03T22:25:05.343Z,101499.53
2023-01-03T22:30:09.365Z,101490.00
2023-01-03T22:35:13.106Z,101506.13
2023-01-03T22:40:17.184Z,101497.44
2023-01-03T22:45:18.739Z,101494.03
2023-01-03T22:50:20.289Z,101499.56
2023-01-03T22:55:24.364Z,101498.94
2023-01-03T23:00:28.145Z,101510.69
2023-01-03T23:05:29.554Z,101505.44
2023-01-03T23:10:30.994Z,101499.25
2023-01-03T23:15:32.556Z,101491.22
2023-01-03T23:20:36.148Z,101485.63
2023-01-03T23:25:37.637Z,101493.00
2023-01-03T23:30:39.140Z,101491.31
2023-01-03T23:35:40.581Z,101487.03
2023-01-03T23:40:43.359Z,101481.94
2023-01-03T23:45:44.797Z,101479.88
2023-01-03T23:50:46.351Z,101479.84
2023-01-03T23:55:47.810Z,101479.28
